createdAt,value
2022-10-18T00:01:41.470Z,11.87
2022-10-18T00:02:50.994Z,12.35
2022-10-18T00:04:01.788Z,10.78
2022-10-18T00:06:20.113Z,11.78
2022-10-18T00:08:45.477Z,11.67
2022-10-18T00:09:55.262Z,10.43
2022-10-18T00:11:04.804Z,10.97
2022-10-18T00:12:13.927Z,11.32
2022-10-18T00:14:40.556Z,11.25
2022-10-18T00:15:51.856Z,11.05
2022-10-18T00:18:16.717Z,10.52
2022-10-18T00:19:29.253Z,10.88
2022-10-18T00:20:38.603Z,11.07
2022-10-18T00:21:51.983Z,10.53
2022-10-18T00:23:00.592Z,10.67
2022-10-18T00:25:26.214Z,10.53
2022-10-18T00:26:41.368Z,11.17
2022-10-18T00:27:50.631Z,10.92
2022-10-18T00:30:18.810Z,12.25
2022-10-18T00:32:52.917Z,11.05
2022-10-18T00:35:22.316Z,10.75
2022-10-18T00:37:49.660Z,10.88
2022-10-18T00:38:58.595Z,10.57
2022-10-18T00:40:09.059Z,11.03
2022-10-18T00:41:24.179Z,10.65
2022-10-18T00:46:41.467Z,10.57
2022-10-18T00:49:37.725Z,12.30
2022-10-18T00:50:49.076Z,11.27
2022-10-18T00:52:01.883Z,11.52
2022-10-18T00:53:16.387Z,11.78
2022-10-18T00:55:42.655Z,11.18
2022-10-18T00:58:08.938Z,10.63
2022-10-18T01:00:37.242Z,11.25
2022-10-18T01:03:02.816Z,10.67
2022-10-18T01:05:30.322Z,9.85
2022-10-18T01:09:43.973Z,10.40
2022-10-18T01:12:44.589Z,11.77
2022-10-18T01:17:18.178Z,11.08
2022-10-18T01:20:27.989Z,11.58
2022-10-18T01:23:11.838Z,11.18
2022-10-18T01:26:12.707Z,11.85
2022-10-18T01:29:19.732Z,11.70
2022-10-18T01:32:02.888Z,11.35
2022-10-18T01:34:39.797Z,11.30
2022-10-18T01:37:12.756Z,11.25
2022-10-18T01:38:25.519Z,11.70
2022-10-18T01:39:39.916Z,10.70
2022-10-18T01:40:50.734Z,11.53
2022-10-18T01:44:31.703Z,10.50
2022-10-18T01:47:06.669Z,10.80
2022-10-18T01:48:17.225Z,10.95
2022-10-18T01:50:42.753Z,11.00
2022-10-18T01:53:25.469Z,11.03
2022-10-18T01:56:10.166Z,11.20
2022-10-18T01:59:08.548Z,11.57
2022-10-18T02:01:46.835Z,11.50
2022-10-18T02:04:36.700Z,10.78
2022-10-18T02:07:29.790Z,10.77
2022-10-18T02:10:12.940Z,11.52
2022-10-18T02:11:30.096Z,10.45
2022-10-18T02:12:48.527Z,10.33
2022-10-18T02:14:02.669Z,10.65
2022-10-18T02:15:20.423Z,10.40
2022-10-18T02:18:07.323Z,10.65
2022-10-18T02:20:53.089Z,11.20
2022-10-18T02:22:03.016Z,11.27
2022-10-18T02:24:40.069Z,10.60
2022-10-18T02:25:50.643Z,11.00
2022-10-18T02:27:00.526Z,10.63
2022-10-18T02:29:24.909Z,10.15
2022-10-18T02:32:21.289Z,10.38
2022-10-18T02:33:55.554Z,11.17
2022-10-18T02:35:10.877Z,11.27
2022-10-18T02:37:50.814Z,11.40
2022-10-18T02:40:22.201Z,11.85
2022-10-18T02:42:53.196Z,9.93
2022-10-18T02:44:01.967Z,11.13
2022-10-18T02:45:11.904Z,10.50
2022-10-18T02:46:22.081Z,11.90
2022-10-18T02:47:32.180Z,11.65
2022-10-18T02:51:25.008Z,10.15
2022-10-18T02:53:48.543Z,10.02
2022-10-18T02:54:57.733Z,11.30
2022-10-18T02:57:22.765Z,9.95
2022-10-18T02:58:31.855Z,11.35
2022-10-18T03:00:59.162Z,11.00
2022-10-18T03:03:23.359Z,10.37
2022-10-18T03:05:52.280Z,10.13
2022-10-18T03:07:01.922Z,9.97
2022-10-18T03:08:11.636Z,10.48
2022-10-18T03:09:21.900Z,10.08
2022-10-18T03:10:30.939Z,9.95
2022-10-18T03:11:41.601Z,10.60
2022-10-18T03:13:02.574Z,11.53
2022-10-18T03:14:12.282Z,10.28
2022-10-18T03:15:20.976Z,10.17
2022-10-18T03:16:30.380Z,10.00
2022-10-18T03:17:38.955Z,10.87
2022-10-18T03:20:08.376Z,10.90
2022-10-18T03:22:39.443Z,10.83
2022-10-18T03:23:48.637Z,11.48
2022-10-18T03:24:57.699Z,10.42
2022-10-18T03:27:21.753Z,10.63
2022-10-18T03:28:32.543Z,10.12
2022-10-18T03:30:50.540Z,10.55
2022-10-18T03:33:14.627Z,10.90
2022-10-18T03:35:38.248Z,10.47
2022-10-18T03:38:13.074Z,10.60
2022-10-18T03:39:22.772Z,10.55
2022-10-18T03:40:32.713Z,10.52
2022-10-18T03:43:04.453Z,11.27
2022-10-18T03:45:31.477Z,10.27
2022-10-18T03:47:56.330Z,10.55
2022-10-18T03:50:20.606Z,10.67
2022-10-18T03:52:45.565Z,10.45
2022-10-18T03:54:07.380Z,10.33
2022-10-18T03:56:33.036Z,10.60
2022-10-18T03:57:47.987Z,10.37
2022-10-18T03:58:57.600Z,10.32
2022-10-18T04:00:08.491Z,10.63
2022-10-18T04:01:26.588Z,10.48
2022-10-18T04:02:38.155Z,10.25
2022-10-18T04:03:47.929Z,10.73
2022-10-18T04:06:14.676Z,11.98
2022-10-18T04:07:24.444Z,11.28
2022-10-18T04:09:47.867Z,10.10
2022-10-18T04:10:57.262Z,10.48
2022-10-18T04:12:06.874Z,10.25
2022-10-18T04:13:16.211Z,10.95
2022-10-18T04:15:42.229Z,10.57
2022-10-18T04:18:09.921Z,10.27
2022-10-18T04:19:26.290Z,10.65
2022-10-18T04:20:41.080Z,10.65
2022-10-18T04:21:49.685Z,10.48
2022-10-18T04:24:17.511Z,10.37
2022-10-18T04:26:43.159Z,10.60
2022-10-18T04:27:52.682Z,10.68
2022-10-18T04:29:02.046Z,10.58
2022-10-18T04:31:32.339Z,10.65
2022-10-18T04:33:57.424Z,10.78
2022-10-18T04:36:23.563Z,10.22
2022-10-18T04:37:34.695Z,11.10
2022-10-18T04:40:01.672Z,10.77
2022-10-18T04:42:25.283Z,10.63
2022-10-18T04:44:50.529Z,10.53
2022-10-18T04:46:01.194Z,10.97
2022-10-18T04:47:11.288Z,9.85
2022-10-18T04:48:20.688Z,10.85
2022-10-18T04:50:50.051Z,10.83
2022-10-18T04:53:17.181Z,10.62
2022-10-18T04:56:50.939Z,9.73
2022-10-18T04:59:16.804Z,9.72
2022-10-18T05:01:42.736Z,9.07
2022-10-18T05:02:58.218Z,10.42
2022-10-18T05:04:07.765Z,9.95
2022-10-18T05:05:21.482Z,9.45
2022-10-18T05:06:30.296Z,9.43
2022-10-18T05:07:39.017Z,9.68
2022-10-18T05:08:48.352Z,8.95
2022-10-18T05:09:57.613Z,9.38
2022-10-18T05:11:06.708Z,9.13
2022-10-18T05:12:16.386Z,9.52
2022-10-18T05:13:25.797Z,9.05
2022-10-18T05:14:34.481Z,9.90
2022-10-18T05:15:43.349Z,9.53
2022-10-18T05:18:07.194Z,9.10
2022-10-18T05:20:53.013Z,8.72
2022-10-18T05:22:04.040Z,10.10
2022-10-18T05:23:13.985Z,9.85
2022-10-18T05:24:25.513Z,9.53
2022-10-18T05:25:33.740Z,9.13
2022-10-18T05:27:58.017Z,9.90
2022-10-18T05:29:11.338Z,10.38
2022-10-18T05:30:23.230Z,9.48
2022-10-18T05:31:39.223Z,9.45
2022-10-18T05:34:05.280Z,9.05
2022-10-18T05:35:14.503Z,9.10
2022-10-18T05:36:26.281Z,9.62
2022-10-18T05:37:35.372Z,8.88
2022-10-18T05:38:46.061Z,9.50
2022-10-18T05:42:40.216Z,8.78
2022-10-18T05:43:52.950Z,9.85
2022-10-18T05:46:18.038Z,9.07
2022-10-18T05:48:44.140Z,9.80
2022-10-18T05:51:07.888Z,10.17
2022-10-18T05:52:25.103Z,9.18
2022-10-18T05:53:37.576Z,9.32
2022-10-18T05:54:50.904Z,9.15
2022-10-18T05:57:17.848Z,9.40
2022-10-18T05:58:26.630Z,9.25
2022-10-18T05:59:35.390Z,9.58
2022-10-18T06:00:45.593Z,9.73
2022-10-18T06:01:55.055Z,9.80
2022-10-18T06:03:04.083Z,8.72
2022-10-18T06:16:12.455Z,9.80
2022-10-18T06:17:22.588Z,9.77
2022-10-18T06:18:31.254Z,9.55
2022-10-18T06:19:40.346Z,9.35
2022-10-18T06:20:49.693Z,9.25
2022-10-18T06:21:59.365Z,9.07
2022-10-18T06:23:08.983Z,9.02
2022-10-18T06:25:35.985Z,9.90
2022-10-18T06:26:44.732Z,9.15
2022-10-18T06:27:53.441Z,9.42
2022-10-18T06:29:02.434Z,8.68
2022-10-18T06:31:26.856Z,9.20
2022-10-18T06:32:35.464Z,9.05
2022-10-18T06:33:46.532Z,9.13
2022-10-18T06:36:19.903Z,8.77
2022-10-18T06:38:47.263Z,7.92
2022-10-18T06:41:17.888Z,8.38
2022-10-18T06:43:42.133Z,8.35
2022-10-18T06:44:51.811Z,8.03
2022-10-18T06:47:19.165Z,8.78
2022-10-18T06:48:28.178Z,8.53
2022-10-18T06:49:37.806Z,7.85
2022-10-18T06:50:58.565Z,7.87
2022-10-18T06:52:07.683Z,8.40
2022-10-18T06:53:16.263Z,8.70
2022-10-18T06:54:25.052Z,8.05
2022-10-18T06:55:34.365Z,8.15
2022-10-18T06:56:44.752Z,8.45
2022-10-18T06:57:53.835Z,9.60
2022-10-18T06:59:04.591Z,9.25
2022-10-18T07:01:30.064Z,8.95
2022-10-18T07:02:41.027Z,8.35
2022-10-18T07:06:18.727Z,7.45
2022-10-18T07:07:32.165Z,8.67
2022-10-18T07:09:57.476Z,8.37
2022-10-18T07:12:23.048Z,8.90
2022-10-18T07:14:48.814Z,8.27
2022-10-18T07:16:04.738Z,8.27
2022-10-18T07:17:13.447Z,8.77
2022-10-18T07:18:22.322Z,7.48
2022-10-18T07:19:31.952Z,7.93
2022-10-18T07:20:42.780Z,7.83
2022-10-18T07:24:15.604Z,7.35
2022-10-18T07:26:40.045Z,8.12
2022-10-18T07:29:09.916Z,8.03
2022-10-18T07:30:19.744Z,7.98
2022-10-18T07:31:29.238Z,7.78
2022-10-18T07:32:42.144Z,7.30
2022-10-18T07:33:51.217Z,7.07
2022-10-18T07:35:01.674Z,7.58
2022-10-18T07:38:36.987Z,7.23
2022-10-18T07:39:46.626Z,7.95
2022-10-18T07:42:15.681Z,7.90
2022-10-18T07:44:40.296Z,7.53
2022-10-18T07:47:12.577Z,7.30
2022-10-18T07:49:42.658Z,8.22
2022-10-18T07:50:53.243Z,7.67
2022-10-18T07:52:04.284Z,7.75
2022-10-18T07:54:30.746Z,7.20
2022-10-18T07:55:39.341Z,7.60
2022-10-18T07:56:48.348Z,7.40
2022-10-18T07:57:59.152Z,7.25
2022-10-18T08:01:35.937Z,7.22
2022-10-18T08:02:45.641Z,7.13
2022-10-18T08:03:55.699Z,7.40
2022-10-18T08:06:22.469Z,7.17
2022-10-18T08:07:33.326Z,6.82
2022-10-18T08:11:11.587Z,31.78
2022-10-18T08:12:21.427Z,13.10
2022-10-18T08:13:31.692Z,9.22
2022-10-18T08:16:04.490Z,7.68
2022-10-18T08:17:14.162Z,7.93
2022-10-18T08:18:23.915Z,6.97
2022-10-18T08:20:48.599Z,7.22
2022-10-18T08:23:12.699Z,7.55
2022-10-18T08:24:22.791Z,7.05
2022-10-18T08:26:50.932Z,5.98
2022-10-18T08:28:02.391Z,6.32
2022-10-18T08:29:22.557Z,5.82
2022-10-18T08:30:23.649Z,6.82
2022-10-18T08:31:33.322Z,7.07
2022-10-18T08:33:59.349Z,6.18
2022-10-18T08:35:09.408Z,6.13
2022-10-18T08:37:27.638Z,5.95
2022-10-18T08:38:40.254Z,6.25
2022-10-18T08:39:48.876Z,6.47
2022-10-18T08:43:03.396Z,6.03
2022-10-18T08:45:43.169Z,6.83
2022-10-18T08:47:04.748Z,6.18
2022-10-18T08:49:45.563Z,6.68
2022-10-18T08:50:54.043Z,6.70
2022-10-18T08:52:04.426Z,6.07
2022-10-18T08:56:18.364Z,5.68
2022-10-18T08:57:28.063Z,5.78
2022-10-18T08:59:53.469Z,5.78
2022-10-18T09:02:46.174Z,6.00
2022-10-18T09:04:04.928Z,6.43
2022-10-18T09:05:27.060Z,6.15
2022-10-18T09:08:23.874Z,5.98
2022-10-18T09:12:53.608Z,5.70
2022-10-18T09:15:36.788Z,6.18
2022-10-18T09:16:49.403Z,5.67
2022-10-18T09:18:15.191Z,6.10
2022-10-18T09:19:47.000Z,6.25
2022-10-18T09:21:00.879Z,5.38
2022-10-18T09:23:43.761Z,5.75
2022-10-18T09:25:16.219Z,5.47
2022-10-18T09:26:26.642Z,5.87
2022-10-18T09:29:15.441Z,5.52
2022-10-18T09:31:54.159Z,6.08
2022-10-18T09:33:21.679Z,5.85
2022-10-18T09:34:51.223Z,7.13
2022-10-18T09:37:20.940Z,6.07
2022-10-18T09:42:26.891Z,6.57
2022-10-18T09:45:26.313Z,5.83
2022-10-18T09:51:12.277Z,6.45
2022-10-18T09:52:27.795Z,6.42
2022-10-18T09:53:58.129Z,5.82
2022-10-18T09:56:48.332Z,5.55
2022-10-18T09:59:29.228Z,5.55
2022-10-18T10:00:49.962Z,5.68
2022-10-18T10:01:59.690Z,5.82
2022-10-18T10:03:15.843Z,5.93
2022-10-18T10:05:39.470Z,5.80
2022-10-18T10:08:10.064Z,5.87
2022-10-18T10:09:39.003Z,5.70
2022-10-18T10:10:48.997Z,4.83
2022-10-18T10:11:59.578Z,5.63
2022-10-18T10:14:45.231Z,5.30
2022-10-18T10:17:30.404Z,5.70
2022-10-18T10:20:04.269Z,5.15
2022-10-18T10:22:40.065Z,5.32
2022-10-18T10:23:58.463Z,5.42
2022-10-18T10:26:34.005Z,5.45
2022-10-18T10:27:46.565Z,5.95
2022-10-18T10:28:56.346Z,5.05
2022-10-18T10:31:37.145Z,5.03
2022-10-18T10:32:49.159Z,5.68
2022-10-18T10:34:05.367Z,5.38
2022-10-18T10:36:49.553Z,4.78
2022-10-18T10:37:59.821Z,5.13
2022-10-18T10:39:18.580Z,5.20
2022-10-18T10:41:57.406Z,4.75
2022-10-18T10:43:33.021Z,5.27
2022-10-18T10:44:33.747Z,5.12
2022-10-18T10:45:59.757Z,4.65
2022-10-18T10:48:27.004Z,5.17
2022-10-18T10:49:42.759Z,5.32
2022-10-18T10:50:55.631Z,5.22
2022-10-18T10:52:15.451Z,5.42
2022-10-18T10:53:37.503Z,5.35
2022-10-18T10:54:51.558Z,5.00
2022-10-18T10:56:00.861Z,5.15
2022-10-18T10:57:13.259Z,5.22
2022-10-18T10:58:23.245Z,5.15
2022-10-18T11:02:31.631Z,5.48
2022-10-18T11:03:47.357Z,5.10
2022-10-18T11:06:33.248Z,4.83
2022-10-18T11:09:05.603Z,4.87
2022-10-18T11:10:18.616Z,5.05
2022-10-18T11:13:03.064Z,5.15
2022-10-18T11:15:49.134Z,5.23
2022-10-18T11:18:36.311Z,5.97
2022-10-18T11:24:25.900Z,5.10
2022-10-18T11:28:47.188Z,5.35
2022-10-18T11:31:47.822Z,4.60
2022-10-18T11:34:41.517Z,4.62
2022-10-18T11:37:32.352Z,4.92
2022-10-18T11:40:26.595Z,5.90
2022-10-18T11:43:24.743Z,4.75
2022-10-18T11:46:15.285Z,5.28
2022-10-18T11:49:20.530Z,5.15
2022-10-18T11:53:38.048Z,5.00
2022-10-18T11:56:46.004Z,4.77
2022-10-18T11:58:13.809Z,5.22
2022-10-18T12:00:49.275Z,5.13
2022-10-18T12:02:21.173Z,4.43
2022-10-18T12:05:24.794Z,4.95
2022-10-18T12:07:54.401Z,4.95
2022-10-18T12:10:59.932Z,4.92
2022-10-18T12:12:19.158Z,4.78
2022-10-18T12:14:55.370Z,4.60
2022-10-18T12:16:08.090Z,4.85
2022-10-18T12:18:58.537Z,5.07
2022-10-18T12:21:38.561Z,5.60
2022-10-18T12:25:37.132Z,5.20
2022-10-18T12:26:49.309Z,5.42
2022-10-18T12:28:35.725Z,4.60
2022-10-18T12:31:23.117Z,4.83
2022-10-18T12:34:00.366Z,4.90
2022-10-18T12:38:08.857Z,4.93
2022-10-18T12:40:40.971Z,4.35
2022-10-18T12:41:54.081Z,5.12
2022-10-18T12:44:34.530Z,4.15
2022-10-18T12:47:23.964Z,3.97
2022-10-18T12:48:39.488Z,4.65
2022-10-18T12:50:01.672Z,4.50
2022-10-18T12:51:16.994Z,4.65
2022-10-18T12:54:02.571Z,4.72
2022-10-18T12:55:19.481Z,5.65
2022-10-18T12:56:32.032Z,4.80
2022-10-18T12:59:19.237Z,4.92
2022-10-18T13:01:56.661Z,5.30
2022-10-18T13:04:37.881Z,5.00
2022-10-18T13:07:21.395Z,4.65
2022-10-18T13:10:15.609Z,4.80
2022-10-18T13:11:29.114Z,4.72
2022-10-18T13:12:51.530Z,4.55
2022-10-18T13:15:37.300Z,4.77
2022-10-18T13:16:49.731Z,4.87
2022-10-18T13:19:27.141Z,4.90
2022-10-18T13:22:35.266Z,4.83
2022-10-18T13:25:37.310Z,5.42
2022-10-18T13:28:31.030Z,6.30
2022-10-18T13:29:57.134Z,6.18
2022-10-18T13:31:27.642Z,5.28
2022-10-18T13:32:59.371Z,5.65
2022-10-18T13:35:57.765Z,5.32
2022-10-18T13:38:37.867Z,5.87
2022-10-18T13:41:09.534Z,5.97
2022-10-18T13:43:58.167Z,5.05
2022-10-18T13:46:56.043Z,5.08
2022-10-18T13:49:58.504Z,4.82
2022-10-18T13:53:11.742Z,4.38
2022-10-18T13:54:43.694Z,4.47
2022-10-18T13:57:43.411Z,4.88
2022-10-18T13:59:13.637Z,4.85
2022-10-18T14:03:58.308Z,4.33
2022-10-18T14:06:51.489Z,4.38
2022-10-18T14:09:45.283Z,5.80
2022-10-18T14:12:31.189Z,5.40
2022-10-18T14:15:09.668Z,5.20
2022-10-18T14:18:02.094Z,5.90
2022-10-18T14:19:31.093Z,5.67
2022-10-18T14:22:06.073Z,6.50
2022-10-18T14:24:34.292Z,7.18
2022-10-18T14:27:24.492Z,8.10
2022-10-18T14:28:55.149Z,8.07
2022-10-18T14:29:44.573Z,7.53
2022-10-18T14:32:31.548Z,8.52
2022-10-18T14:33:47.939Z,8.85
2022-10-18T14:36:21.841Z,9.72
2022-10-18T14:37:37.280Z,9.55
2022-10-18T14:38:56.816Z,10.40
2022-10-18T14:41:29.397Z,12.05
2022-10-18T14:45:38.521Z,14.50
2022-10-18T14:48:18.662Z,14.40
2022-10-18T14:49:28.823Z,14.08
2022-10-18T14:50:38.040Z,14.10
2022-10-18T14:51:50.817Z,15.22
2022-10-18T14:54:32.414Z,14.70
2022-10-18T14:55:43.054Z,15.30
2022-10-18T14:59:29.551Z,16.10
2022-10-18T15:00:40.440Z,17.20
2022-10-18T15:03:12.893Z,17.92
2022-10-18T15:07:18.151Z,20.03
2022-10-18T15:09:48.122Z,20.65
2022-10-18T15:10:58.006Z,21.42
2022-10-18T15:12:08.951Z,18.45
2022-10-18T15:13:19.165Z,17.08
2022-10-18T15:15:45.028Z,15.78
2022-10-18T15:18:16.296Z,12.70
2022-10-18T15:19:35.878Z,11.88
2022-10-18T15:20:45.706Z,11.25
2022-10-18T15:23:29.515Z,10.85
2022-10-18T15:27:26.112Z,13.70
2022-10-18T15:30:11.129Z,13.03
2022-10-18T15:32:54.048Z,11.32
2022-10-18T15:34:20.503Z,10.75
2022-10-18T15:36:52.154Z,10.65
2022-10-18T15:38:32.047Z,11.07
2022-10-18T15:39:40.966Z,12.70
2022-10-18T15:42:06.282Z,11.47
2022-10-18T15:46:06.575Z,11.58
2022-10-18T15:47:20.926Z,11.25
2022-10-18T15:49:58.711Z,12.28
2022-10-18T15:53:56.130Z,13.27
2022-10-18T15:56:48.029Z,12.43
2022-10-18T15:59:36.632Z,13.78
2022-10-18T16:02:02.299Z,14.33
2022-10-18T16:03:11.065Z,13.52
2022-10-18T16:05:45.625Z,15.95
2022-10-18T16:08:24.361Z,19.50
2022-10-18T16:10:48.991Z,27.22
2022-10-18T16:11:58.033Z,29.45
2022-10-18T16:14:23.193Z,23.65
2022-10-18T16:15:34.173Z,22.40
2022-10-18T16:16:44.310Z,18.72
2022-10-18T16:17:54.047Z,15.90
2022-10-18T16:19:03.787Z,15.85
2022-10-18T16:21:38.925Z,12.72
2022-10-18T16:24:05.781Z,9.70
2022-10-18T16:26:30.604Z,10.83
2022-10-18T16:28:57.678Z,12.22
2022-10-18T16:31:31.379Z,12.00
2022-10-18T16:33:56.781Z,12.52
2022-10-18T16:36:28.694Z,11.95
2022-10-18T16:38:55.616Z,11.53
2022-10-18T16:40:26.000Z,12.75
2022-10-18T16:41:35.760Z,9.85
2022-10-18T16:42:44.863Z,12.27
2022-10-18T16:45:09.764Z,44.85
2022-10-18T16:47:37.458Z,12.65
2022-10-18T16:48:47.891Z,11.43
2022-10-18T16:49:57.579Z,11.50
2022-10-18T16:52:22.523Z,10.95
2022-10-18T16:53:32.026Z,9.73
2022-10-18T16:56:00.771Z,9.86
2022-10-18T16:58:29.557Z,8.58
2022-10-18T16:59:39.572Z,9.58
2022-10-18T17:02:07.159Z,9.52
2022-10-18T17:04:32.653Z,10.77
2022-10-18T17:06:58.455Z,10.75
2022-10-18T17:09:30.078Z,10.58
2022-10-18T17:11:53.891Z,11.02
2022-10-18T17:13:02.959Z,9.93
2022-10-18T17:15:27.953Z,10.95
2022-10-18T17:16:39.299Z,11.12
2022-10-18T17:17:50.357Z,10.75
2022-10-18T17:20:21.428Z,17.37
2022-10-18T17:22:48.483Z,11.35
2022-10-18T17:25:22.056Z,10.85
2022-10-18T17:27:46.779Z,10.07
2022-10-18T17:30:17.455Z,10.65
2022-10-18T17:32:45.257Z,10.03
2022-10-18T17:33:58.848Z,11.05
2022-10-18T17:36:25.115Z,10.27
2022-10-18T17:37:34.500Z,10.63
2022-10-18T17:40:03.228Z,10.40
2022-10-18T17:41:13.717Z,9.50
2022-10-18T17:42:24.062Z,9.58
2022-10-18T17:44:51.897Z,10.03
2022-10-18T17:46:00.539Z,10.35
2022-10-18T17:48:25.190Z,10.03
2022-10-18T17:49:33.880Z,9.25
2022-10-18T17:52:04.528Z,9.93
2022-10-18T17:54:27.851Z,10.13
2022-10-18T17:56:53.909Z,11.50
2022-10-18T17:58:02.421Z,10.97
2022-10-18T18:00:28.436Z,11.60
2022-10-18T18:01:38.164Z,13.35
2022-10-18T18:04:21.385Z,10.67
2022-10-18T18:06:48.689Z,11.92
2022-10-18T18:08:02.764Z,10.93
2022-10-18T18:10:29.257Z,11.28
2022-10-18T18:11:40.446Z,11.78
2022-10-18T18:12:50.038Z,12.27
2022-10-18T18:13:59.560Z,12.60
2022-10-18T18:16:28.182Z,12.02
2022-10-18T18:18:56.596Z,12.53
2022-10-18T18:21:22.360Z,12.10
2022-10-18T18:23:47.767Z,12.87
2022-10-18T18:26:14.584Z,11.30
2022-10-18T18:27:23.291Z,13.00
2022-10-18T18:29:46.903Z,12.43
2022-10-18T18:32:12.872Z,12.27
2022-10-18T18:34:37.545Z,12.58
2022-10-18T18:35:57.302Z,13.07
2022-10-18T18:38:23.308Z,12.87
2022-10-18T18:40:50.434Z,12.42
2022-10-18T18:41:59.520Z,12.05
2022-10-18T18:43:22.818Z,12.40
2022-10-18T18:45:37.664Z,12.28
2022-10-18T18:46:48.567Z,13.23
2022-10-18T18:49:13.765Z,12.02
2022-10-18T18:51:40.167Z,12.25
2022-10-18T18:52:49.281Z,12.80
2022-10-18T18:53:58.467Z,13.60
2022-10-18T18:56:26.168Z,12.35
2022-10-18T18:58:51.143Z,12.33
2022-10-18T19:01:24.807Z,12.00
2022-10-18T19:03:50.581Z,11.60
2022-10-18T19:07:29.601Z,10.47
2022-10-18T19:09:54.477Z,11.68
2022-10-18T19:11:08.113Z,11.20
2022-10-18T19:13:34.214Z,11.22
2022-10-18T19:14:43.798Z,11.68
2022-10-18T19:15:52.798Z,11.37
2022-10-18T19:17:04.347Z,12.05
2022-10-18T19:19:30.213Z,11.67
2022-10-18T19:22:01.139Z,11.28
2022-10-18T19:23:12.760Z,11.20
2022-10-18T19:24:23.703Z,10.87
2022-10-18T19:28:05.953Z,11.08
2022-10-18T19:30:34.049Z,10.15
2022-10-18T19:33:03.551Z,9.87
2022-10-18T19:34:13.358Z,9.95
2022-10-18T19:36:40.747Z,9.93
2022-10-18T19:37:49.281Z,10.27
2022-10-18T19:40:13.615Z,9.88
2022-10-18T19:42:38.801Z,10.27
2022-10-18T19:43:48.677Z,10.53
2022-10-18T19:44:57.595Z,10.33
2022-10-18T19:47:22.239Z,9.80
2022-10-18T19:48:32.329Z,10.43
2022-10-18T19:51:07.063Z,10.20
2022-10-18T19:53:33.178Z,10.38
2022-10-18T19:54:42.378Z,10.35
2022-10-18T19:57:20.521Z,10.43
2022-10-18T19:59:44.172Z,10.25
2022-10-18T20:02:14.428Z,10.13
2022-10-18T20:04:40.626Z,10.62
2022-10-18T20:07:16.960Z,10.20
2022-10-18T20:08:27.807Z,9.12
2022-10-18T20:10:52.745Z,10.02
2022-10-18T20:12:02.034Z,9.68
2022-10-18T20:14:26.313Z,9.93
2022-10-18T20:16:49.767Z,9.98
2022-10-18T20:17:59.546Z,9.80
2022-10-18T20:19:09.642Z,9.73
2022-10-18T20:20:18.848Z,9.88
2022-10-18T20:22:47.550Z,10.13
2022-10-18T20:26:24.885Z,9.38
2022-10-18T20:27:34.103Z,10.03
2022-10-18T20:28:43.996Z,9.82
2022-10-18T20:29:53.674Z,9.60
2022-10-18T20:32:21.673Z,9.17
2022-10-18T20:33:31.469Z,9.52
2022-10-18T20:34:41.310Z,9.50
2022-10-18T20:37:06.928Z,9.77
2022-10-18T20:39:30.440Z,9.25
2022-10-18T20:41:54.143Z,9.48
2022-10-18T20:44:19.841Z,9.47
2022-10-18T20:47:52.946Z,8.63
2022-10-18T20:50:41.521Z,8.53
2022-10-18T20:53:05.276Z,8.63
2022-10-18T20:54:16.063Z,8.55
2022-10-18T20:56:40.292Z,8.72
2022-10-18T20:57:50.328Z,9.08
2022-10-18T20:58:59.717Z,8.44
2022-10-18T21:01:30.257Z,8.97
2022-10-18T21:02:39.893Z,8.20
2022-10-18T21:03:50.609Z,8.78
2022-10-18T21:06:18.963Z,7.92
2022-10-18T21:08:44.996Z,8.52
2022-10-18T21:09:54.661Z,8.28
2022-10-18T21:12:19.638Z,7.93
2022-10-18T21:13:28.213Z,9.05
2022-10-18T21:14:36.829Z,8.93
2022-10-18T21:17:04.686Z,8.23
2022-10-18T21:19:29.272Z,8.32
2022-10-18T21:20:38.804Z,8.30
2022-10-18T21:21:51.378Z,8.65
2022-10-18T21:23:00.419Z,8.08
2022-10-18T21:24:10.549Z,8.08
2022-10-18T21:25:19.317Z,8.10
2022-10-18T21:26:29.045Z,8.83
2022-10-18T21:27:39.764Z,8.42
2022-10-18T21:30:08.232Z,8.17
2022-10-18T21:32:35.577Z,8.65
2022-10-18T21:35:01.861Z,7.50
2022-10-18T21:37:27.439Z,8.55
2022-10-18T21:38:37.981Z,8.60
2022-10-18T21:39:47.562Z,8.13
2022-10-18T21:40:57.294Z,8.08
2022-10-18T21:43:21.881Z,7.98
2022-10-18T21:45:46.787Z,8.20
2022-10-18T21:48:11.357Z,8.23
2022-10-18T21:50:39.535Z,7.95
2022-10-18T21:51:49.217Z,8.23
2022-10-18T21:52:58.352Z,8.28
2022-10-18T21:55:25.169Z,7.78
2022-10-18T21:57:50.698Z,7.60
2022-10-18T22:00:17.803Z,8.10
2022-10-18T22:02:54.018Z,7.27
2022-10-18T22:05:22.848Z,7.58
2022-10-18T22:07:43.942Z,8.13
2022-10-18T22:08:56.616Z,8.02
2022-10-18T22:11:24.929Z,7.73
2022-10-18T22:13:53.334Z,7.77
2022-10-18T22:16:18.663Z,7.80
2022-10-18T22:17:29.266Z,7.95
2022-10-18T22:18:38.376Z,7.88
2022-10-18T22:19:48.017Z,8.35
2022-10-18T22:21:01.039Z,8.00
2022-10-18T22:22:10.866Z,8.32
2022-10-18T22:24:37.609Z,8.65
2022-10-18T22:27:03.424Z,7.22
2022-10-18T22:29:33.524Z,7.58
2022-10-18T22:30:42.931Z,7.42
2022-10-18T22:33:09.906Z,8.05
2022-10-18T22:35:41.248Z,7.95
2022-10-18T22:36:51.400Z,7.93
2022-10-18T22:38:00.515Z,8.43
2022-10-18T22:39:10.724Z,8.10
2022-10-18T22:40:20.698Z,8.33
2022-10-18T22:41:29.273Z,8.15
2022-10-18T22:43:58.389Z,7.83
2022-10-18T22:45:08.800Z,8.33
2022-10-18T22:46:18.692Z,8.10
2022-10-18T22:48:42.829Z,8.20
2022-10-18T22:49:52.507Z,8.43
2022-10-18T22:51:02.407Z,8.53
2022-10-18T22:52:12.077Z,8.13
2022-10-18T22:53:22.116Z,8.38
2022-10-18T22:55:52.025Z,8.18
2022-10-18T22:58:15.782Z,8.52
2022-10-18T22:59:25.024Z,8.42
2022-10-18T23:00:34.708Z,7.70
2022-10-18T23:01:43.871Z,8.65
2022-10-18T23:02:53.608Z,8.58
2022-10-18T23:05:18.339Z,7.55
2022-10-18T23:07:48.931Z,7.90
2022-10-18T23:09:00.852Z,8.35
2022-10-18T23:10:10.644Z,8.35
2022-10-18T23:11:21.020Z,8.10
2022-10-18T23:12:30.766Z,8.15
2022-10-18T23:13:39.860Z,8.23
2022-10-18T23:16:06.589Z,8.07
2022-10-18T23:17:16.226Z,7.57
2022-10-18T23:18:25.894Z,8.00
2022-10-18T23:20:50.228Z,8.15
2022-10-18T23:21:58.845Z,8.97
2022-10-18T23:23:07.959Z,8.48
2022-10-18T23:24:17.695Z,8.45
2022-10-18T23:25:27.096Z,8.55
2022-10-18T23:26:35.770Z,8.72
2022-10-18T23:28:59.857Z,8.87
2022-10-18T23:31:28.602Z,8.10
2022-10-18T23:32:38.522Z,8.17
2022-10-18T23:33:49.874Z,7.52
2022-10-18T23:36:14.818Z,8.12
2022-10-18T23:37:24.745Z,8.10
2022-10-18T23:38:35.523Z,8.75
2022-10-18T23:42:10.606Z,8.47
2022-10-18T23:43:19.664Z,8.92
2022-10-18T23:44:29.288Z,8.13
2022-10-18T23:46:53.471Z,8.32
2022-10-18T23:48:02.490Z,8.35
2022-10-18T23:49:12.756Z,8.70
2022-10-18T23:50:22.839Z,8.03
2022-10-18T23:51:31.861Z,8.22
2022-10-18T23:53:56.040Z,8.35
2022-10-18T23:56:22.811Z,8.52
2022-10-18T23:58:47.611Z,8.75
